Time,TemperatureF,DewpointF,PressureIn,WindDirection,WindDirectionDegrees,WindSpeedMPH,WindSpeedGustMPH,Humidity,HourlyPrecipIn,Conditions,Clouds,dailyrainin,SoftwareType,DateUTC
2013-08-15 00:00:00,66.0,50.8,30.12,North,353,2.7,4.0,58,0.00,,---,0.00,VWS V14.01,2013-08-15 04:00:00,
2013-08-15 00:01:00,66.0,50.8,30.12,North,353,2.2,4.0,58,0.00,,---,0.00,VWS V14.01,2013-08-15 04:01:00,
2013-08-15 00:02:00,66.0,50.8,30.12,NNW,337,2.2,3.1,58,0.00,,---,0.00,VWS V14.01,2013-08-15 04:02:00,
2013-08-15 00:04:00,66.0,50.8,30.12,NNW,343,2.2,3.1,58,0.00,,---,0.00,VWS V14.01,2013-08-15 04:04:00,
2013-08-15 00:08:00,66.0,50.8,30.12,NNW,338,3.6,4.0,58,0.00,,---,0.00,VWS V14.01,2013-08-15 04:08:00,
2013-08-15 00:13:00,65.8,50.7,30.12,North,353,3.1,3.6,58,0.00,,---,0.00,VWS V14.01,2013-08-15 04:13:00,
2013-08-15 00:18:00,66.0,50.8,30.12,NNW,337,0.0,3.6,58,0.00,,---,0.00,VWS V14.01,2013-08-15 04:18:00,
2013-08-15 00:23:00,65.8,51.1,30.12,North,353,4.0,4.0,59,0.00,,---,0.00,VWS V14.01,2013-08-15 04:23:00,
2013-08-15 00:28:00,65.7,51.0,30.12,North,353,0.0,3.1,59,0.00,,---,0.00,VWS V14.01,2013-08-15 04:28:00,
2013-08-15 00:30:00,65.7,51.0,30.12,NNW,348,2.2,3.1,59,0.00,,---,0.00,VWS V14.01,2013-08-15 04:30:00,
2013-08-15 00:35:00,65.7,51.4,30.12,NNW,333,0.0,2.2,60,0.00,,---,0.00,VWS V14.01,2013-08-15 04:35:00,
2013-08-15 00:40:00,65.5,51.2,30.12,North,1,0.0,3.1,60,0.00,,---,0.00,VWS V14.01,2013-08-15 04:40:00,
2013-08-15 00:45:00,65.5,51.2,30.12,North,0,2.2,2.7,60,0.00,,---,0.00,VWS V14.01,2013-08-15 04:45:00,
2013-08-15 00:50:00,65.5,51.2,30.12,North,353,0.0,0.0,60,0.00,,---,0.00,VWS V14.01,2013-08-15 04:50:00,
2013-08-15 00:55:00,65.3,51.1,30.12,North,0,3.1,3.1,60,0.00,,---,0.00,VWS V14.01,2013-08-15 04:55:00,
2013-08-15 01:00:00,65.1,51.3,30.12,North,0,3.1,3.1,61,0.00,,---,0.00,VWS V14.01,2013-08-15 05:00:00,
2013-08-15 01:05:00,65.1,51.3,30.12,North,353,0.0,0.0,61,0.00,,---,0.00,VWS V14.01,2013-08-15 05:05:00,
2013-08-15 01:10:00,64.9,51.2,30.12,North,353,2.7,2.7,61,0.00,,---,0.00,VWS V14.01,2013-08-15 05:10:00,
2013-08-15 01:15:00,64.9,51.2,30.12,North,353,0.0,0.0,61,0.00,,---,0.00,VWS V14.01,2013-08-15 05:15:00,
2013-08-15 01:20:00,64.8,51.0,30.12,North,0,2.7,2.7,61,0.00,,---,0.00,VWS V14.01,2013-08-15 05:20:00,
2013-08-15 01:25:00,64.6,50.8,30.12,NNW,339,2.2,2.7,61,0.00,,---,0.00,VWS V14.01,2013-08-15 05:25:00,
2013-08-15 01:30:00,64.6,50.8,30.12,North,353,2.2,3.1,61,0.00,,---,0.00,VWS V14.01,2013-08-15 05:30:00,
2013-08-15 01:35:00,64.4,50.7,30.12,North,353,2.2,2.7,61,0.00,,---,0.00,VWS V14.01,2013-08-15 05:35:00,
2013-08-15 01:40:00,64.4,50.2,30.12,North,0,2.2,2.2,60,0.00,,---,0.00,VWS V14.01,2013-08-15 05:40:00,
2013-08-15 01:45:00,64.2,50.5,30.12,NNW,334,0.0,2.7,61,0.00,,---,0.00,VWS V14.01,2013-08-15 05:45:00,
2013-08-15 01:50:00,64.2,50.5,30.12,North,350,0.0,0.0,61,0.00,,---,0.00,VWS V14.01,2013-08-15 05:50:00,
2013-08-15 01:55:00,64.2,50.9,30.12,North,0,2.2,2.7,62,0.00,,---,0.00,VWS V14.01,2013-08-15 05:55:00,
2013-08-15 02:00:00,64.2,50.9,30.12,North,349,2.7,3.6,62,0.00,,---,0.00,VWS V14.01,2013-08-15 06:00:00,
2013-08-15 02:05:00,64.2,50.9,30.12,North,0,3.1,5.4,62,0.00,,---,0.00,VWS V14.01,2013-08-15 06:05:00,
2013-08-15 02:10:00,64.0,50.8,30.12,North,353,4.0,4.0,62,0.00,,---,0.00,VWS V14.01,2013-08-15 06:10:00,
2013-08-15 02:15:00,63.9,50.6,30.12,North,0,2.7,2.7,62,0.00,,---,0.00,VWS V14.01,2013-08-15 06:15:00,
2013-08-15 02:21:00,63.9,50.6,30.12,North,357,2.2,2.2,62,0.00,,---,0.00,VWS V14.01,2013-08-15 06:21:00,
2013-08-15 02:26:00,64.0,51.2,30.12,NE,47,2.7,2.7,63,0.00,,---,0.00,VWS V14.01,2013-08-15 06:26:00,
2013-08-15 02:31:00,63.9,51.0,30.12,NNW,337,3.6,5.4,63,0.00,,---,0.00,VWS V14.01,2013-08-15 06:31:00,
2013-08-15 02:36:00,63.9,51.0,30.12,North,9,2.2,3.6,63,0.00,,---,0.00,VWS V14.01,2013-08-15 06:36:00,
2013-08-15 02:41:00,63.9,51.0,30.12,North,353,0.0,0.0,63,0.00,,---,0.00,VWS V14.01,2013-08-15 06:41:00,
2013-08-15 02:46:00,63.9,51.5,30.12,North,11,4.0,4.0,64,0.00,,---,0.00,VWS V14.01,2013-08-15 06:46:00,
2013-08-15 02:51:00,63.9,51.5,30.12,NNW,343,0.0,3.6,64,0.00,,---,0.00,VWS V14.01,2013-08-15 06:51:00,
2013-08-15 02:56:00,63.9,51.0,30.12,North,0,2.2,3.6,63,0.00,,---,0.00,VWS V14.01,2013-08-15 06:56:00,
2013-08-15 03:01:00,63.9,51.5,30.12,North,2,2.2,3.1,64,0.00,,---,0.00,VWS V14.01,2013-08-15 07:01:00,
2013-08-15 03:06:00,63.9,51.5,30.12,North,5,2.7,3.1,64,0.00,,---,0.00,VWS V14.01,2013-08-15 07:06:00,
2013-08-15 03:11:00,63.9,51.5,30.12,North,353,2.7,2.7,64,0.00,,---,0.00,VWS V14.01,2013-08-15 07:11:00,
2013-08-15 03:16:00,63.7,51.3,30.12,NNW,339,2.7,4.9,64,0.00,,---,0.00,VWS V14.01,2013-08-15 07:16:00,
2013-08-15 03:21:00,63.7,51.3,30.12,North,4,3.1,3.6,64,0.00,,---,0.00,VWS V14.01,2013-08-15 07:21:00,
2013-08-15 03:26:00,63.5,51.1,30.12,NNW,344,4.0,5.8,64,0.00,,---,0.00,VWS V14.01,2013-08-15 07:26:00,
2013-08-15 03:31:00,63.5,51.5,30.12,North,357,2.7,3.6,65,0.00,,---,0.00,VWS V14.01,2013-08-15 07:31:00,
2013-08-15 03:36:00,63.5,51.5,30.12,North,0,3.6,4.0,65,0.00,,---,0.00,VWS V14.01,2013-08-15 07:36:00,
2013-08-15 03:41:00,63.3,51.4,30.12,North,0,3.6,4.0,65,0.00,,---,0.00,VWS V14.01,2013-08-15 07:41:00,
2013-08-15 03:46:00,63.1,51.2,30.12,North,353,2.2,3.1,65,0.00,,---,0.00,VWS V14.01,2013-08-15 07:46:00,
2013-08-15 03:51:00,63.1,51.2,30.12,NE,38,2.7,3.6,65,0.00,,---,0.00,VWS V14.01,2013-08-15 07:51:00,
2013-08-15 03:56:00,63.1,51.2,30.12,North,11,3.6,5.8,65,0.00,,---,0.00,VWS V14.01,2013-08-15 07:56:00,
2013-08-15 04:01:00,63.0,51.0,30.12,North,357,4.0,5.8,65,0.00,,---,0.00,VWS V14.01,2013-08-15 08:01:00,
2013-08-15 04:06:00,62.8,50.8,30.12,NNW,332,3.6,4.0,65,0.00,,---,0.00,VWS V14.01,2013-08-15 08:06:00,
2013-08-15 04:11:00,63.0,51.0,30.12,North,357,3.1,5.4,65,0.00,,---,0.00,VWS V14.01,2013-08-15 08:11:00,
2013-08-15 04:16:00,62.8,50.8,30.12,NE,34,0.0,0.0,65,0.00,,---,0.00,VWS V14.01,2013-08-15 08:16:00,
2013-08-15 04:21:00,62.8,50.4,30.12,North,11,7.2,7.6,64,0.00,,---,0.00,VWS V14.01,2013-08-15 08:21:00,
2013-08-15 04:26:00,62.8,50.4,30.12,North,0,5.4,8.1,64,0.00,,---,0.00,VWS V14.01,2013-08-15 08:26:00,
2013-08-15 04:31:00,62.6,50.3,30.12,North,7,3.1,3.1,64,0.00,,---,0.00,VWS V14.01,2013-08-15 08:31:00,
2013-08-15 04:36:00,62.6,50.3,30.12,North,8,3.6,5.8,64,0.00,,---,0.00,VWS V14.01,2013-08-15 08:36:00,
2013-08-15 04:41:00,62.4,50.5,30.12,NNE,32,6.3,6.3,65,0.00,,---,0.00,VWS V14.01,2013-08-15 08:41:00,
2013-08-15 04:46:00,62.4,50.1,30.12,North,0,5.4,6.3,64,0.00,,---,0.00,VWS V14.01,2013-08-15 08:46:00,
2013-08-15 04:51:00,62.2,49.9,30.12,North,357,2.7,5.4,64,0.00,,---,0.00,VWS V14.01,2013-08-15 08:51:00,
2013-08-15 04:56:00,62.2,49.9,30.12,North,6,6.3,6.3,64,0.00,,---,0.00,VWS V14.01,2013-08-15 08:56:00,
2013-08-15 05:01:00,62.1,49.8,30.15,NE,39,5.8,5.8,64,0.00,,---,0.00,VWS V14.01,2013-08-15 09:01:00,
2013-08-15 05:06:00,62.1,49.8,30.15,NNE,14,6.3,6.3,64,0.00,,---,0.00,VWS V14.01,2013-08-15 09:06:00,
2013-08-15 05:11:00,61.9,50.0,30.15,North,0,4.9,5.4,65,0.00,,---,0.00,VWS V14.01,2013-08-15 09:11:00,
2013-08-15 05:16:00,61.9,50.0,30.12,ENE,65,5.4,5.8,65,0.00,,---,0.00,VWS V14.01,2013-08-15 09:16:00,
2013-08-15 05:21:00,61.7,49.8,30.12,NE,34,3.6,5.4,65,0.00,,---,0.00,VWS V14.01,2013-08-15 09:21:00,
2013-08-15 05:26:00,61.7,49.8,30.12,North,0,9.2,9.2,65,0.00,,---,0.00,VWS V14.01,2013-08-15 09:26:00,
2013-08-15 05:31:00,61.7,49.8,30.15,NE,52,4.0,5.8,65,0.00,,---,0.00,VWS V14.01,2013-08-15 09:31:00,
2013-08-15 05:36:00,61.7,49.4,30.15,NNE,33,8.1,8.1,64,0.00,,---,0.00,VWS V14.01,2013-08-15 09:36:00,
2013-08-15 05:41:00,61.7,49.4,30.15,North,357,4.0,4.0,64,0.00,,---,0.00,VWS V14.01,2013-08-15 09:41:00,
2013-08-15 05:46:00,61.7,49.4,30.15,NNE,27,7.6,7.6,64,0.00,,---,0.00,VWS V14.01,2013-08-15 09:46:00,
2013-08-15 05:51:00,61.5,49.2,30.15,North,0,5.4,5.4,64,0.00,,---,0.00,VWS V14.01,2013-08-15 09:51:00,
2013-08-15 05:56:00,61.5,49.2,30.15,NE,41,4.0,4.0,64,0.00,,---,0.00,VWS V14.01,2013-08-15 09:56:00,
2013-08-15 06:01:00,61.3,49.1,30.15,NE,37,3.1,5.4,64,0.00,,---,0.00,VWS V14.01,2013-08-15 10:01:00,
2013-08-15 06:06:00,61.3,49.1,30.15,North,357,3.1,4.0,64,0.00,,---,0.00,VWS V14.01,2013-08-15 10:06:00,
2013-08-15 06:11:00,61.3,49.1,30.15,North,11,5.8,6.3,64,0.00,,---,0.00,VWS V14.01,2013-08-15 10:11:00,
2013-08-15 06:16:00,61.3,49.1,30.15,NNE,20,2.2,4.0,64,0.00,,---,0.00,VWS V14.01,2013-08-15 10:16:00,
2013-08-15 06:21:00,61.3,49.1,30.15,North,353,2.7,3.1,64,0.00,,---,0.00,VWS V14.01,2013-08-15 10:21:00,
2013-08-15 06:26:00,61.3,49.1,30.15,NNE,15,5.8,5.8,64,0.00,,---,0.00,VWS V14.01,2013-08-15 10:26:00,
2013-08-15 06:31:00,61.3,49.1,30.15,North,357,6.3,6.3,64,0.00,,---,0.00,VWS V14.01,2013-08-15 10:31:00,
2013-08-15 06:36:00,61.3,49.1,30.15,NNE,20,5.8,5.8,64,0.00,,---,0.00,VWS V14.01,2013-08-15 10:36:00,
2013-08-15 06:41:00,61.7,49.4,30.15,NNW,343,2.7,3.6,64,0.00,,---,0.00,VWS V14.01,2013-08-15 10:41:00,
2013-08-15 06:46:00,61.7,49.4,30.18,NE,38,4.0,4.0,64,0.00,,---,0.00,VWS V14.01,2013-08-15 10:46:00,
2013-08-15 06:51:00,62.1,49.8,30.18,North,353,2.7,5.4,64,0.00,,---,0.00,VWS V14.01,2013-08-15 10:51:00,
2013-08-15 06:56:00,62.2,49.5,30.18,North,0,3.6,3.6,63,0.00,,---,0.00,VWS V14.01,2013-08-15 10:56:00,
2013-08-15 07:01:00,62.6,49.4,30.18,North,3,2.7,4.0,62,0.00,,---,0.00,VWS V14.01,2013-08-15 11:01:00,
2013-08-15 07:06:00,63.0,49.8,30.18,North,5,3.6,3.6,62,0.00,,---,0.00,VWS V14.01,2013-08-15 11:06:00,
2013-08-15 07:11:00,63.3,49.7,30.18,NNE,14,4.5,7.2,61,0.00,,---,0.00,VWS V14.01,2013-08-15 11:11:00,
2013-08-15 07:16:00,63.9,49.7,30.18,NNE,33,3.6,4.9,60,0.00,,---,0.00,VWS V14.01,2013-08-15 11:16:00,
2013-08-15 07:21:00,64.0,49.9,30.18,NNW,334,3.6,3.6,60,0.00,,---,0.00,VWS V14.01,2013-08-15 11:21:00,
2013-08-15 07:26:00,64.6,50.0,30.18,NNE,28,3.6,4.5,59,0.00,,---,0.00,VWS V14.01,2013-08-15 11:26:00,
2013-08-15 07:31:00,64.8,49.2,30.18,North,9,2.2,5.8,57,0.00,,---,0.00,VWS V14.01,2013-08-15 11:31:00,
2013-08-15 07:36:00,65.3,49.2,30.18,North,0,3.1,4.0,56,0.00,,---,0.00,VWS V14.01,2013-08-15 11:36:00,
2013-08-15 07:41:00,65.7,49.1,30.18,North,357,2.7,7.2,55,0.00,,---,0.00,VWS V14.01,2013-08-15 11:41:00,
2013-08-15 07:46:00,66.0,49.4,30.18,NNE,21,3.1,5.8,55,0.00,,---,0.00,VWS V14.01,2013-08-15 11:46:00,
2013-08-15 07:51:00,66.6,49.4,30.18,NNE,15,4.9,7.2,54,0.00,,---,0.00,VWS V14.01,2013-08-15 11:51:00,
2013-08-15 07:56:00,66.6,48.9,30.18,NE,36,5.4,5.4,53,0.00,,---,0.00,VWS V14.01,2013-08-15 11:56:00,
2013-08-15 08:01:00,67.1,48.9,30.18,NNE,28,5.8,6.3,52,0.00,,---,0.00,VWS V14.01,2013-08-15 12:01:00,
2013-08-15 08:06:00,67.6,48.9,30.18,ESE,111,3.6,5.8,51,0.00,,---,0.00,VWS V14.01,2013-08-15 12:06:00,
2013-08-15 08:11:00,68.4,49.0,30.18,NE,45,4.9,4.9,50,0.00,,---,0.00,VWS V14.01,2013-08-15 12:11:00,
2013-08-15 08:16:00,68.7,49.3,30.21,North,357,3.1,4.9,50,0.00,,---,0.00,VWS V14.01,2013-08-15 12:16:00,
2013-08-15 08:21:00,68.9,49.0,30.21,NE,55,3.1,5.4,49,0.00,,---,0.00,VWS V14.01,2013-08-15 12:21:00,
2013-08-15 08:26:00,69.4,48.9,30.21,North,9,3.1,4.0,48,0.00,,---,0.00,VWS V14.01,2013-08-15 12:26:00,
2013-08-15 08:31:00,69.8,48.7,30.21,NE,36,4.9,6.3,47,0.00,,---,0.00,VWS V14.01,2013-08-15 12:31:00,
2013-08-15 08:36:00,70.3,48.6,30.21,North,353,6.3,7.2,46,0.00,,---,0.00,VWS V14.01,2013-08-15 12:36:00,
2013-08-15 08:41:00,70.3,48.0,30.21,NNE,19,4.0,8.1,45,0.00,,---,0.00,VWS V14.01,2013-08-15 12:41:00,
2013-08-15 08:46:00,70.5,48.2,30.21,North,3,2.7,6.3,45,0.00,,---,0.00,VWS V14.01,2013-08-15 12:46:00,
2013-08-15 08:52:00,70.9,47.9,30.21,North,11,8.1,10.1,44,0.00,,---,0.00,VWS V14.01,2013-08-15 12:52:00,
2013-08-15 08:58:00,70.9,47.9,30.21,NE,36,5.8,8.7,44,0.00,,---,0.00,VWS V14.01,2013-08-15 12:58:00,
2013-08-15 09:03:00,71.8,48.1,30.21,North,1,4.0,6.3,43,0.00,,---,0.00,VWS V14.01,2013-08-15 13:03:00,
2013-08-15 09:08:00,72.1,48.4,30.21,North,7,5.8,5.8,43,0.00,,---,0.00,VWS V14.01,2013-08-15 13:08:00,
2013-08-15 09:14:00,72.5,48.1,30.21,NNE,16,3.1,6.3,42,0.00,,---,0.00,VWS V14.01,2013-08-15 13:14:00,
2013-08-15 09:19:00,73.0,48.0,30.21,North,0,5.4,8.3,41,0.00,,---,0.00,VWS V14.01,2013-08-15 13:19:00,
2013-08-15 09:25:00,73.4,48.3,30.21,WNW,294,2.7,7.2,41,0.00,,---,0.00,VWS V14.01,2013-08-15 13:25:00,
2013-08-15 09:30:00,73.8,48.0,30.18,NNW,348,3.1,5.8,40,0.00,,---,0.00,VWS V14.01,2013-08-15 13:30:00,
2013-08-15 09:36:00,74.3,47.8,30.18,NNE,16,5.4,10.5,39,0.00,,---,0.00,VWS V14.01,2013-08-15 13:36:00,
2013-08-15 09:41:00,73.8,47.3,30.18,NNE,23,6.3,7.6,39,0.00,,---,0.00,VWS V14.01,2013-08-15 13:41:00,
2013-08-15 09:46:00,74.7,48.1,30.21,ENE,73,4.0,5.4,39,0.00,,---,0.00,VWS V14.01,2013-08-15 13:46:00,
2013-08-15 09:51:00,75.4,48.0,30.21,NNE,20,2.7,4.0,38,0.00,,---,0.00,VWS V14.01,2013-08-15 13:51:00,
2013-08-15 09:56:00,75.2,47.9,30.21,North,6,4.0,4.5,38,0.00,,---,0.00,VWS V14.01,2013-08-15 13:56:00,
2013-08-15 10:01:00,75.0,48.4,30.21,NNW,340,5.4,5.8,39,0.00,,---,0.00,VWS V14.01,2013-08-15 14:01:00,
2013-08-15 10:06:00,75.6,48.2,30.21,ENE,72,5.4,6.3,38,0.00,,---,0.00,VWS V14.01,2013-08-15 14:06:00,
2013-08-15 10:11:00,75.9,47.8,30.21,ENE,57,4.0,4.0,37,0.00,,---,0.00,VWS V14.01,2013-08-15 14:11:00,
2013-08-15 10:16:00,75.7,47.7,30.21,ENE,65,5.4,5.4,37,0.00,,---,0.00,VWS V14.01,2013-08-15 14:16:00,
2013-08-15 10:21:00,76.6,48.4,30.21,NE,36,3.1,3.1,37,0.00,,---,0.00,VWS V14.01,2013-08-15 14:21:00,
2013-08-15 10:27:00,76.8,48.6,30.21,NE,39,4.0,4.0,37,0.00,,---,0.00,VWS V14.01,2013-08-15 14:27:00,
2013-08-15 10:32:00,77.9,48.8,30.21,NE,35,4.0,4.0,36,0.00,,---,0.00,VWS V14.01,2013-08-15 14:32:00,
2013-08-15 10:37:00,78.3,48.4,30.21,NE,38,3.1,4.9,35,0.00,,---,0.00,VWS V14.01,2013-08-15 14:37:00,
2013-08-15 10:42:00,78.4,48.5,30.21,NNE,21,4.0,6.3,35,0.00,,---,0.00,VWS V14.01,2013-08-15 14:42:00,
2013-08-15 10:47:00,78.3,47.6,30.21,NE,54,3.6,5.8,34,0.00,,---,0.00,VWS V14.01,2013-08-15 14:47:00,
2013-08-15 10:52:00,78.1,47.5,30.21,North,357,4.0,6.3,34,0.00,,---,0.00,VWS V14.01,2013-08-15 14:52:00,
2013-08-15 10:57:00,77.9,47.3,30.21,NE,56,4.0,4.5,34,0.00,,---,0.00,VWS V14.01,2013-08-15 14:57:00,
2013-08-15 11:02:00,77.7,47.1,30.21,North,0,0.0,0.0,34,0.00,,---,0.00,VWS V14.01,2013-08-15 15:02:00,
2013-08-15 11:07:00,77.4,46.0,30.21,WNW,296,3.6,5.4,33,0.00,,---,0.00,VWS V14.01,2013-08-15 15:07:00,
2013-08-15 11:12:00,78.4,47.0,30.21,North,10,5.4,5.4,33,0.00,,---,0.00,VWS V14.01,2013-08-15 15:12:00,
2013-08-15 11:17:00,77.7,45.5,30.21,North,2,2.2,2.2,32,0.00,,---,0.00,VWS V14.01,2013-08-15 15:17:00,
2013-08-15 11:22:00,77.7,46.3,30.21,NNW,344,0.0,2.2,33,0.00,,---,0.00,VWS V14.01,2013-08-15 15:22:00,
2013-08-15 11:27:00,78.8,46.5,30.21,North,0,2.2,3.1,32,0.00,,---,0.00,VWS V14.01,2013-08-15 15:27:00,
2013-08-15 11:32:00,79.3,47.0,30.21,NNE,32,4.0,4.0,32,0.00,,---,0.00,VWS V14.01,2013-08-15 15:32:00,
2013-08-15 11:37:00,79.5,46.3,30.21,North,1,0.0,4.0,31,0.00,,---,0.00,VWS V14.01,2013-08-15 15:37:00,
2013-08-15 11:42:00,79.5,46.3,30.21,NNE,14,2.7,3.6,31,0.00,,---,0.00,VWS V14.01,2013-08-15 15:42:00,
2013-08-15 11:47:00,80.8,46.5,30.21,North,3,4.9,4.9,30,0.00,,---,0.00,VWS V14.01,2013-08-15 15:47:00,
2013-08-15 11:52:00,81.3,47.0,30.21,NW,313,4.0,6.3,30,0.00,,---,0.00,VWS V14.01,2013-08-15 15:52:00,
2013-08-15 11:57:00,78.4,45.3,30.21,NW,321,3.6,5.8,31,0.00,,---,0.00,VWS V14.01,2013-08-15 15:57:00,
2013-08-15 12:02:00,77.4,44.4,30.21,NNW,333,8.1,8.1,31,0.00,,---,0.00,VWS V14.01,2013-08-15 16:02:00,
2013-08-15 12:07:00,77.9,45.7,30.21,NW,307,0.0,0.0,32,0.00,,---,0.00,VWS V14.01,2013-08-15 16:07:00,
2013-08-15 12:12:00,78.3,46.0,30.21,ESE,106,5.8,8.7,32,0.00,,---,0.00,VWS V14.01,2013-08-15 16:12:00,
2013-08-15 12:17:00,78.1,47.5,30.21,SSE,154,3.1,5.8,34,0.00,,---,0.00,VWS V14.01,2013-08-15 16:17:00,
2013-08-15 12:24:00,80.8,49.0,30.21,ESE,111,0.0,3.1,33,0.00,,---,0.00,VWS V14.01,2013-08-15 16:24:00,
2013-08-15 12:29:00,79.9,46.6,30.21,WNW,298,5.4,5.4,31,0.00,,---,0.00,VWS V14.01,2013-08-15 16:29:00,
2013-08-15 12:35:00,80.6,47.2,30.21,NE,49,0.0,4.0,31,0.00,,---,0.00,VWS V14.01,2013-08-15 16:35:00,
2013-08-15 12:40:00,82.4,47.9,30.21,ENE,67,3.1,3.1,30,0.00,,---,0.00,VWS V14.01,2013-08-15 16:40:00,
2013-08-15 12:46:00,84.7,49.0,30.21,ENE,67,4.0,4.0,29,0.00,,---,0.00,VWS V14.01,2013-08-15 16:46:00,
2013-08-15 12:51:00,83.1,47.6,30.21,NNW,340,0.0,3.6,29,0.00,,---,0.00,VWS V14.01,2013-08-15 16:51:00,
2013-08-15 12:56:00,83.3,48.7,30.21,SSE,168,3.6,4.0,30,0.00,,---,0.00,VWS V14.01,2013-08-15 16:56:00,
2013-08-15 13:02:00,82.0,48.5,30.18,SSW,211,3.1,4.9,31,0.00,,---,0.00,VWS V14.01,2013-08-15 17:02:00,
2013-08-15 13:07:00,80.8,47.4,30.18,SSW,202,2.7,3.1,31,0.00,,---,0.00,VWS V14.01,2013-08-15 17:07:00,
2013-08-15 13:13:00,78.8,45.6,30.18,West,264,2.7,4.0,31,0.00,,---,0.00,VWS V14.01,2013-08-15 17:13:00,
2013-08-15 13:18:00,80.6,48.0,30.18,SSE,163,0.0,3.6,32,0.00,,---,0.00,VWS V14.01,2013-08-15 17:18:00,
2013-08-15 13:23:00,82.2,49.5,30.18,SSE,151,3.6,3.6,32,0.00,,---,0.00,VWS V14.01,2013-08-15 17:23:00,
2013-08-15 13:28:00,82.9,49.2,30.18,SSW,199,3.6,5.4,31,0.00,,---,0.00,VWS V14.01,2013-08-15 17:28:00,
2013-08-15 13:33:00,80.4,47.9,30.18,SSW,197,5.8,5.8,32,0.00,,---,0.00,VWS V14.01,2013-08-15 17:33:00,
2013-08-15 13:38:00,78.8,46.5,30.18,South,183,6.3,6.3,32,0.00,,---,0.00,VWS V14.01,2013-08-15 17:38:00,
2013-08-15 13:43:00,79.5,47.9,30.18,SSW,199,4.9,4.9,33,0.00,,---,0.00,VWS V14.01,2013-08-15 17:43:00,
2013-08-15 13:49:00,80.6,48.0,30.18,SW,214,5.4,6.7,32,0.00,,---,0.00,VWS V14.01,2013-08-15 17:49:00,
2013-08-15 13:55:00,79.5,47.9,30.18,SE,135,6.3,6.3,33,0.00,,---,0.00,VWS V14.01,2013-08-15 17:55:00,
2013-08-15 14:00:00,78.8,47.3,30.18,SSW,196,5.8,6.7,33,0.00,,---,0.00,VWS V14.01,2013-08-15 18:00:00,
2013-08-15 14:06:00,78.6,47.1,30.18,SSE,158,5.4,7.6,33,0.00,,---,0.00,VWS V14.01,2013-08-15 18:06:00,
2013-08-15 14:12:00,78.6,47.1,30.18,SSW,196,6.3,8.1,33,0.00,,---,0.00,VWS V14.01,2013-08-15 18:12:00,
2013-08-15 14:17:00,77.9,47.3,30.18,SSE,163,8.7,8.7,34,0.00,,---,0.00,VWS V14.01,2013-08-15 18:17:00,
2013-08-15 14:23:00,76.6,47.7,30.18,SW,217,8.7,8.7,36,0.00,,---,0.00,VWS V14.01,2013-08-15 18:23:00,
2013-08-15 14:28:00,76.8,47.9,30.18,SSW,201,7.6,8.7,36,0.00,,---,0.00,VWS V14.01,2013-08-15 18:28:00,
2013-08-15 14:33:00,76.5,48.3,30.18,SSW,192,8.1,8.3,37,0.00,,---,0.00,VWS V14.01,2013-08-15 18:33:00,
2013-08-15 14:38:00,76.5,49.7,30.18,SW,215,5.4,8.1,39,0.00,,---,0.00,VWS V14.01,2013-08-15 18:38:00,
2013-08-15 14:44:00,76.5,49.7,30.18,SSW,192,5.8,6.3,39,0.00,,---,0.00,VWS V14.01,2013-08-15 18:44:00,
2013-08-15 14:49:00,75.9,49.2,30.18,SSW,202,5.4,5.8,39,0.00,,---,0.00,VWS V14.01,2013-08-15 18:49:00,
2013-08-15 14:54:00,75.7,49.0,30.18,SW,221,8.3,10.1,39,0.00,,---,0.00,VWS V14.01,2013-08-15 18:54:00,
2013-08-15 14:59:00,75.7,49.7,30.18,SSW,203,8.3,8.3,40,0.00,,---,0.00,VWS V14.01,2013-08-15 18:59:00,
2013-08-15 15:04:00,75.4,48.7,30.18,SSW,193,8.1,8.1,39,0.00,,---,0.00,VWS V14.01,2013-08-15 19:04:00,
2013-08-15 15:09:00,75.9,49.9,30.18,SSW,207,7.6,8.1,40,0.00,,---,0.00,VWS V14.01,2013-08-15 19:09:00,
2013-08-15 15:14:00,75.2,49.2,30.18,SSW,213,10.5,10.5,40,0.00,,---,0.00,VWS V14.01,2013-08-15 19:14:00,
2013-08-15 15:19:00,75.0,50.4,30.18,SSW,205,4.0,4.0,42,0.00,,---,0.00,VWS V14.01,2013-08-15 19:19:00,
2013-08-15 15:25:00,75.4,49.4,30.18,South,181,5.8,8.1,40,0.00,,---,0.00,VWS V14.01,2013-08-15 19:25:00,
2013-08-15 15:30:00,75.2,49.2,30.15,SSE,163,4.0,6.3,40,0.00,,---,0.00,VWS V14.01,2013-08-15 19:30:00,
2013-08-15 15:36:00,75.6,49.6,30.15,WSW,240,7.2,8.7,40,0.00,,---,0.00,VWS V14.01,2013-08-15 19:36:00,
2013-08-15 15:41:00,76.1,48.7,30.15,SSE,168,3.6,6.3,38,0.00,,---,0.00,VWS V14.01,2013-08-15 19:41:00,
2013-08-15 15:47:00,77.0,48.0,30.15,South,173,5.4,5.4,36,0.00,,---,0.00,VWS V14.01,2013-08-15 19:47:00,
2013-08-15 15:52:00,79.2,48.4,30.15,SSW,203,4.9,5.8,34,0.00,,---,0.00,VWS V14.01,2013-08-15 19:52:00,
2013-08-15 15:57:00,81.1,49.3,30.15,South,183,2.2,2.7,33,0.00,,---,0.00,VWS V14.01,2013-08-15 19:57:00,
2013-08-15 16:04:00,79.5,47.9,30.15,SSW,213,0.0,6.3,33,0.00,,---,0.00,VWS V14.01,2013-08-15 20:04:00,
2013-08-15 16:09:00,79.7,48.1,30.15,North,353,2.7,5.8,33,0.00,,---,0.00,VWS V14.01,2013-08-15 20:09:00,
2013-08-15 16:15:00,81.3,47.8,30.15,WSW,252,3.6,6.3,31,0.00,,---,0.00,VWS V14.01,2013-08-15 20:15:00,
2013-08-15 16:20:00,82.2,48.6,30.15,NW,306,2.7,5.8,31,0.00,,---,0.00,VWS V14.01,2013-08-15 20:20:00,
2013-08-15 16:25:00,81.5,48.0,30.15,WNW,292,4.0,4.0,31,0.00,,---,0.00,VWS V14.01,2013-08-15 20:25:00,
2013-08-15 16:30:00,81.9,48.3,30.15,NNW,331,7.6,8.7,31,0.00,,---,0.00,VWS V14.01,2013-08-15 20:30:00,
2013-08-15 16:35:00,81.1,47.7,30.15,WNW,295,4.0,5.4,31,0.00,,---,0.00,VWS V14.01,2013-08-15 20:35:00,
2013-08-15 16:40:00,80.4,47.9,30.15,SW,226,3.6,6.3,32,0.00,,---,0.00,VWS V14.01,2013-08-15 20:40:00,
2013-08-15 16:45:00,80.6,47.2,30.15,West,265,4.0,5.8,31,0.00,,---,0.00,VWS V14.01,2013-08-15 20:45:00,
2013-08-15 16:50:00,81.7,48.1,30.15,WSW,238,5.8,5.8,31,0.00,,---,0.00,VWS V14.01,2013-08-15 20:50:00,
2013-08-15 16:55:00,81.0,47.5,30.15,West,271,4.0,8.1,31,0.00,,---,0.00,VWS V14.01,2013-08-15 20:55:00,
2013-08-15 17:00:00,80.1,46.7,30.15,West,281,5.8,8.1,31,0.00,,---,0.00,VWS V14.01,2013-08-15 21:00:00,
2013-08-15 17:05:00,81.3,47.8,30.15,WSW,249,8.1,8.3,31,0.00,,---,0.00,VWS V14.01,2013-08-15 21:05:00,
2013-08-15 17:10:00,80.6,47.2,30.15,West,277,8.3,10.1,31,0.00,,---,0.00,VWS V14.01,2013-08-15 21:10:00,
2013-08-15 17:15:00,80.1,47.6,30.12,WNW,290,10.1,10.1,32,0.00,,---,0.00,VWS V14.01,2013-08-15 21:15:00,
2013-08-15 17:20:00,80.2,47.7,30.12,SW,230,5.4,8.7,32,0.00,,---,0.00,VWS V14.01,2013-08-15 21:20:00,
2013-08-15 17:25:00,80.1,47.6,30.12,West,265,8.3,10.1,32,0.00,,---,0.00,VWS V14.01,2013-08-15 21:25:00,
2013-08-15 17:31:00,79.0,46.6,30.15,WSW,256,5.8,10.1,32,0.00,,---,0.00,VWS V14.01,2013-08-15 21:31:00,
2013-08-15 17:36:00,80.2,47.7,30.15,NW,304,8.7,8.7,32,0.00,,---,0.00,VWS V14.01,2013-08-15 21:36:00,
2013-08-15 17:41:00,80.6,47.2,30.15,NNW,346,5.4,5.4,31,0.00,,---,0.00,VWS V14.01,2013-08-15 21:41:00,
2013-08-15 17:46:00,80.4,47.0,30.15,WNW,288,8.1,8.7,31,0.00,,---,0.00,VWS V14.01,2013-08-15 21:46:00,
2013-08-15 17:51:00,81.1,47.7,30.15,West,262,6.3,8.3,31,0.00,,---,0.00,VWS V14.01,2013-08-15 21:51:00,
2013-08-15 17:56:00,80.2,46.9,30.15,NW,309,5.4,5.8,31,0.00,,---,0.00,VWS V14.01,2013-08-15 21:56:00,
2013-08-15 18:01:00,79.9,46.6,30.15,West,259,6.3,8.7,31,0.00,,---,0.00,VWS V14.01,2013-08-15 22:01:00,
2013-08-15 18:06:00,79.5,47.1,30.15,NW,307,8.1,8.1,32,0.00,,---,0.00,VWS V14.01,2013-08-15 22:06:00,
2013-08-15 18:11:00,79.7,47.3,30.15,West,276,8.1,8.1,32,0.00,,---,0.00,VWS V14.01,2013-08-15 22:11:00,
2013-08-15 18:16:00,79.5,46.3,30.15,West,281,5.4,6.7,31,0.00,,---,0.00,VWS V14.01,2013-08-15 22:16:00,
2013-08-15 18:21:00,79.5,46.3,30.15,West,278,6.3,6.3,31,0.00,,---,0.00,VWS V14.01,2013-08-15 22:21:00,
2013-08-15 18:26:00,79.3,47.0,30.15,West,273,6.3,6.3,32,0.00,,---,0.00,VWS V14.01,2013-08-15 22:26:00,
2013-08-15 18:31:00,78.8,46.5,30.15,WNW,283,8.7,10.5,32,0.00,,---,0.00,VWS V14.01,2013-08-15 22:31:00,
2013-08-15 18:36:00,79.2,46.8,30.15,WNW,301,8.7,8.7,32,0.00,,---,0.00,VWS V14.01,2013-08-15 22:36:00,
2013-08-15 18:41:00,78.8,46.5,30.15,West,261,5.4,8.7,32,0.00,,---,0.00,VWS V14.01,2013-08-15 22:41:00,
2013-08-15 18:46:00,78.8,46.5,30.18,West,281,8.1,8.1,32,0.00,,---,0.00,VWS V14.01,2013-08-15 22:46:00,
2013-08-15 18:51:00,79.2,46.8,30.18,WNW,282,5.8,6.3,32,0.00,,---,0.00,VWS V14.01,2013-08-15 22:51:00,
2013-08-15 18:56:00,79.2,46.8,30.18,WSW,257,8.3,8.3,32,0.00,,---,0.00,VWS V14.01,2013-08-15 22:56:00,
2013-08-15 19:01:00,79.3,47.0,30.15,West,265,10.5,10.5,32,0.00,,---,0.00,VWS V14.01,2013-08-15 23:01:00,
2013-08-15 19:06:00,80.2,47.7,30.15,WSW,238,8.1,8.1,32,0.00,,---,0.00,VWS V14.01,2013-08-15 23:06:00,
2013-08-15 19:11:00,81.1,47.7,30.15,SW,234,4.0,7.6,31,0.00,,---,0.00,VWS V14.01,2013-08-15 23:11:00,
2013-08-15 19:16:00,81.0,47.5,30.15,WNW,296,7.6,7.6,31,0.00,,---,0.00,VWS V14.01,2013-08-15 23:16:00,
2013-08-15 19:21:00,79.9,47.4,30.15,NNW,344,3.1,5.8,32,0.00,,---,0.00,VWS V14.01,2013-08-15 23:21:00,
2013-08-15 19:26:00,80.2,47.7,30.15,WNW,294,2.7,3.6,32,0.00,,---,0.00,VWS V14.01,2013-08-15 23:26:00,
2013-08-15 19:31:00,79.7,47.3,30.15,West,264,2.7,2.7,32,0.00,,---,0.00,VWS V14.01,2013-08-15 23:31:00,
2013-08-15 19:36:00,77.9,46.5,30.15,West,272,0.0,3.1,33,0.00,,---,0.00,VWS V14.01,2013-08-15 23:36:00,
2013-08-15 19:41:00,77.0,45.7,30.15,West,260,5.4,5.8,33,0.00,,---,0.00,VWS V14.01,2013-08-15 23:41:00,
2013-08-15 19:46:00,74.5,45.1,30.15,WSW,257,2.2,4.9,35,0.00,,---,0.00,VWS V14.01,2013-08-15 23:46:00,
2013-08-15 19:51:00,73.9,45.3,30.15,WSW,256,0.0,2.2,36,0.00,,---,0.00,VWS V14.01,2013-08-15 23:51:00,
2013-08-15 19:56:00,73.8,46.6,30.15,SSW,209,2.7,4.0,38,0.00,,---,0.00,VWS V14.01,2013-08-15 23:56:00,
2013-08-15 20:01:00,73.2,47.5,30.18,SW,227,2.7,4.0,40,0.00,,---,0.00,VWS V14.01,2013-08-16 00:01:00,
2013-08-15 20:06:00,72.9,47.8,30.18,WSW,250,2.7,3.1,41,0.00,,---,0.00,VWS V14.01,2013-08-16 00:06:00,
2013-08-15 20:11:00,72.7,47.7,30.18,SW,232,3.6,3.6,41,0.00,,---,0.00,VWS V14.01,2013-08-16 00:11:00,
2013-08-15 20:16:00,72.5,48.1,30.18,SSW,193,3.1,3.1,42,0.00,,---,0.00,VWS V14.01,2013-08-16 00:16:00,
2013-08-15 20:21:00,72.3,48.0,30.18,SW,232,3.6,4.9,42,0.00,,---,0.00,VWS V14.01,2013-08-16 00:21:00,
2013-08-15 20:26:00,72.1,47.8,30.18,WSW,246,4.0,4.0,42,0.00,,---,0.00,VWS V14.01,2013-08-16 00:26:00,
2013-08-15 20:32:00,72.0,47.6,30.18,WSW,244,3.1,3.6,42,0.00,,---,0.00,VWS V14.01,2013-08-16 00:32:00,
2013-08-15 20:37:00,71.8,47.5,30.18,SW,228,4.0,4.9,42,0.00,,---,0.00,VWS V14.01,2013-08-16 00:37:00,
2013-08-15 20:42:00,71.6,47.3,30.18,SW,226,4.5,5.8,42,0.00,,---,0.00,VWS V14.01,2013-08-16 00:42:00,
2013-08-15 20:47:00,71.6,47.3,30.18,WSW,238,4.0,4.0,42,0.00,,---,0.00,VWS V14.01,2013-08-16 00:47:00,
2013-08-15 20:52:00,71.6,47.3,30.18,WSW,237,3.6,4.5,42,0.00,,---,0.00,VWS V14.01,2013-08-16 00:52:00,
2013-08-15 20:57:00,71.4,47.2,30.18,WSW,246,3.6,3.6,42,0.00,,---,0.00,VWS V14.01,2013-08-16 00:57:00,
2013-08-15 21:02:00,71.4,47.2,30.18,SSW,206,0.0,0.0,42,0.00,,---,0.00,VWS V14.01,2013-08-16 01:02:00,
2013-08-15 21:07:00,71.4,47.8,30.18,WSW,245,3.6,3.6,43,0.00,,---,0.00,VWS V14.01,2013-08-16 01:07:00,
2013-08-15 21:12:00,71.4,47.8,30.18,SW,218,5.4,5.4,43,0.00,,---,0.00,VWS V14.01,2013-08-16 01:12:00,
2013-08-15 21:17:00,71.4,47.8,30.21,SW,236,2.7,2.7,43,0.00,,---,0.00,VWS V14.01,2013-08-16 01:17:00,
2013-08-15 21:22:00,71.1,47.5,30.21,WSW,237,2.7,2.7,43,0.00,,---,0.00,VWS V14.01,2013-08-16 01:22:00,
2013-08-15 21:27:00,71.1,47.5,30.21,WSW,240,3.1,4.0,43,0.00,,---,0.00,VWS V14.01,2013-08-16 01:27:00,
2013-08-15 21:34:00,70.9,47.3,30.21,WSW,257,0.0,2.7,43,0.00,,---,0.00,VWS V14.01,2013-08-16 01:34:00,
2013-08-15 21:39:00,70.9,47.9,30.21,WSW,240,2.7,4.9,44,0.00,,---,0.00,VWS V14.01,2013-08-16 01:39:00,
2013-08-15 21:46:00,70.9,48.5,30.21,SW,235,4.0,6.3,45,0.00,,---,0.00,VWS V14.01,2013-08-16 01:46:00,
2013-08-15 21:52:00,70.7,49.5,30.21,SW,224,5.4,5.4,47,0.00,,---,0.00,VWS V14.01,2013-08-16 01:52:00,
2013-08-15 21:57:00,70.7,49.5,30.21,WSW,251,3.6,4.9,47,0.00,,---,0.00,VWS V14.01,2013-08-16 01:57:00,
2013-08-15 22:02:00,70.7,50.1,30.21,SSW,213,6.3,6.3,48,0.00,,---,0.00,VWS V14.01,2013-08-16 02:02:00,
2013-08-15 22:07:00,70.9,49.7,30.21,SW,220,7.2,7.2,47,0.00,,---,0.00,VWS V14.01,2013-08-16 02:07:00,
2013-08-15 22:12:00,70.9,49.7,30.21,SSW,212,2.2,3.1,47,0.00,,---,0.00,VWS V14.01,2013-08-16 02:12:00,
2013-08-15 22:17:00,70.7,50.1,30.21,SW,221,0.0,4.9,48,0.00,,---,0.00,VWS V14.01,2013-08-16 02:17:00,
2013-08-15 22:22:00,70.5,49.9,30.21,SSE,163,5.8,5.8,48,0.00,,---,0.00,VWS V14.01,2013-08-16 02:22:00,
2013-08-15 22:27:00,70.5,49.3,30.21,SW,221,5.4,5.4,47,0.00,,---,0.00,VWS V14.01,2013-08-16 02:27:00,
2013-08-15 22:32:00,70.5,49.3,30.21,SW,217,4.0,4.0,47,0.00,,---,0.00,VWS V14.01,2013-08-16 02:32:00,
2013-08-15 22:37:00,70.3,49.2,30.21,SW,236,4.0,4.0,47,0.00,,---,0.00,VWS V14.01,2013-08-16 02:37:00,
2013-08-15 22:42:00,70.2,49.6,30.21,WSW,243,3.1,4.9,48,0.00,,---,0.00,VWS V14.01,2013-08-16 02:42:00,
2013-08-15 22:47:00,70.0,49.4,30.21,SW,235,3.1,4.0,48,0.00,,---,0.00,VWS V14.01,2013-08-16 02:47:00,
2013-08-15 22:52:00,69.8,49.2,30.21,WSW,246,4.0,4.0,48,0.00,,---,0.00,VWS V14.01,2013-08-16 02:52:00,
2013-08-15 22:57:00,69.8,49.2,30.21,WSW,245,3.6,4.0,48,0.00,,---,0.00,VWS V14.01,2013-08-16 02:57:00,
2013-08-15 23:02:00,69.6,49.1,30.21,WSW,249,3.6,4.0,48,0.00,,---,0.00,VWS V14.01,2013-08-16 03:02:00,
2013-08-15 23:07:00,69.6,49.6,30.21,WSW,237,3.1,6.3,49,0.00,,---,0.00,VWS V14.01,2013-08-16 03:07:00,
2013-08-15 23:12:00,69.6,49.1,30.21,WSW,247,4.0,4.9,48,0.00,,---,0.00,VWS V14.01,2013-08-16 03:12:00,
2013-08-15 23:17:00,69.4,48.9,30.21,WSW,248,2.7,4.0,48,0.00,,---,0.00,VWS V14.01,2013-08-16 03:17:00,
2013-08-15 23:23:00,69.4,48.9,30.21,WSW,249,4.0,4.0,48,0.00,,---,0.00,VWS V14.01,2013-08-16 03:23:00,
2013-08-15 23:28:00,69.4,48.9,30.21,WSW,250,4.0,4.9,48,0.00,,---,0.00,VWS V14.01,2013-08-16 03:28:00,
2013-08-15 23:33:00,69.4,48.9,30.21,WSW,240,3.6,5.4,48,0.00,,---,0.00,VWS V14.01,2013-08-16 03:33:00,
2013-08-15 23:38:00,69.3,49.3,30.21,WSW,254,2.7,4.0,49,0.00,,---,0.00,VWS V14.01,2013-08-16 03:38:00,
2013-08-15 23:43:00,69.3,49.3,30.21,WSW,248,0.0,4.0,49,0.00,,---,0.00,VWS V14.01,2013-08-16 03:43:00,
2013-08-15 23:48:00,69.3,49.3,30.21,WSW,240,3.1,4.9,49,0.00,,---,0.00,VWS V14.01,2013-08-16 03:48:00,
2013-08-15 23:53:00,69.1,49.1,30.21,WSW,244,2.7,3.1,49,0.00,,---,0.00,VWS V14.01,2013-08-16 03:53:00,
2013-08-15 23:58:00,69.1,49.7,30.21,SW,236,3.6,3.6,50,0.00,,---,0.00,VWS V14.01,2013-08-16 03:58:00,